Hastings, United Kingdom
Current Conditions -  °F | °C
As of 6:50 PM on Thursday 27 Nov 2014 (Local Time) from EGMD Reporting Station
Few Clouds Few Clouds  
Wind Chill: 12°   Ceiling: Unl
Heat Index: 12°   Visibility: 6mi
Dew Point: 11°   Wind: 9mph
Humidity: 94%   Direction: 140°SE
Pressure: 29.62"   Gusts: NA
Location:  50.86°N, 0.57°E
Report Text: EGMD 271850Z 14008KT 9999 FEW017 12/11 Q1003
Loading
Personal Weather Stations






























Interactive Weather Map New forecast layout! Learn more

10-Day Weather Forecast

Advertisements
Track Severe Weather on mobile